Main page
METAR-TAF:

METAR-TAF

Airports :

Ancona, Italy

Falconara Airport

latitude: 43-37N, longitude: 013-22E, elevation: 12 m

Current weather observation

The report was made 50 minutes ago, at 21:50 UTC
Wind 4 kt from the South
Temperature 20°C
Humidity 68%
Pressure 1017 hPa
Visibility 10 km or more
no clouds below 1500 m and no cumulonimbus

METAR: LIPY 232150Z 19004KT CAVOK 20/14 Q1017

Time: 00:40 (22:40 UTC)

Forecast

The report was made 5 hours and 40 minutes ago, at 17:00 UTC
Forecast valid from 23 at 18 UTC to 24 at 18 UTC
Wind 5 kt from variable directions
Visibility 10 km or more
no clouds below 1500 m and no cumulonimbus
Becoming
from 24 at 10 UTC to 24 at 12 UTC
Wind 10 kt from the North/Northeast

TAF: LIPY 231700Z 2318/2418 VRB05KT CAVOK BECMG 2410/2412 03010KT

Weather observations and forecasts of more than 4000 airports (METAR and TAF reports).

The available stations are represented by yellow and red dots on the map.

Hover mouse over dot to see the name of the station.

Then click to see weather observations and forecasts.

To change the map : click on the green buttons with a black cross to zoom in, on the green button with a dash to zoom out, or on the green arrows for adjacent maps.


METAR-TAF: